sensor_id;sensor_type;location;lat;lon;timestamp;temperature;humidity
12922;DHT22;6528;48.086;16.282;2022-10-16T00:00:48;23.10;1.00
12922;DHT22;6528;48.086;16.282;2022-10-16T00:03:14;23.10;1.00
12922;DHT22;6528;48.086;16.282;2022-10-16T00:05:42;23.10;1.00
12922;DHT22;6528;48.086;16.282;2022-10-16T00:08:11;23.10;99.90
12922;DHT22;6528;48.086;16.282;2022-10-16T00:10:38;23.10;11.20
12922;DHT22;6528;48.086;16.282;2022-10-16T00:13:06;23.10;1.00
12922;DHT22;6528;48.086;16.282;2022-10-16T00:15:34;23.10;99.90
12922;DHT22;6528;48.086;16.282;2022-10-16T00:18:03;23.10;1.00
12922;DHT22;6528;48.086;16.282;2022-10-16T00:20:33;23.10;1.00
12922;DHT22;6528;48.086;16.282;2022-10-16T00:23:00;23.10;99.90
12922;DHT22;6528;48.086;16.282;2022-10-16T00:25:27;23.10;99.90
12922;DHT22;6528;48.086;16.282;2022-10-16T00:27:54;23.10;1.00
12922;DHT22;6528;48.086;16.282;2022-10-16T00:30:20;23.10;99.90
12922;DHT22;6528;48.086;16.282;2022-10-16T00:32:47;23.10;1.00
12922;DHT22;6528;48.086;16.282;2022-10-16T00:35:14;23.10;99.90
12922;DHT22;6528;48.086;16.282;2022-10-16T00:37:41;23.10;83.10
12922;DHT22;6528;48.086;16.282;2022-10-16T00:40:08;23.10;1.00
12922;DHT22;6528;48.086;16.282;2022-10-16T00:42:34;23.10;99.90
12922;DHT22;6528;48.086;16.282;2022-10-16T00:45:02;23.10;1.00
12922;DHT22;6528;48.086;16.282;2022-10-16T00:47:42;23.10;1.00
12922;DHT22;6528;48.086;16.282;2022-10-16T00:50:18;23.10;1.90
12922;DHT22;6528;48.086;16.282;2022-10-16T00:52:48;23.10;1.00
12922;DHT22;6528;48.086;16.282;2022-10-16T00:55:16;23.10;1.00
12922;DHT22;6528;48.086;16.282;2022-10-16T00:57:44;23.10;99.90
12922;DHT22;6528;48.086;16.282;2022-10-16T01:00:19;23.10;99.90
12922;DHT22;6528;48.086;16.282;2022-10-16T01:03:00;23.10;99.90
12922;DHT22;6528;48.086;16.282;2022-10-16T01:05:49;23.10;99.90
12922;DHT22;6528;48.086;16.282;2022-10-16T01:09:14;23.10;1.00
12922;DHT22;6528;48.086;16.282;2022-10-16T01:11:41;23.10;99.90
12922;DHT22;6528;48.086;16.282;2022-10-16T01:14:21;23.10;99.90
12922;DHT22;6528;48.086;16.282;2022-10-16T01:17:12;23.10;99.90
12922;DHT22;6528;48.086;16.282;2022-10-16T01:19:57;23.10;99.90
12922;DHT22;6528;48.086;16.282;2022-10-16T01:22:48;23.10;99.90
12922;DHT22;6528;48.086;16.282;2022-10-16T01:28:17;23.10;1.00
12922;DHT22;6528;48.086;16.282;2022-10-16T01:30:46;23.10;99.90
12922;DHT22;6528;48.086;16.282;2022-10-16T01:33:18;23.10;1.00
12922;DHT22;6528;48.086;16.282;2022-10-16T01:36:02;23.10;99.90
12922;DHT22;6528;48.086;16.282;2022-10-16T01:38:38;23.10;99.90
12922;DHT22;6528;48.086;16.282;2022-10-16T01:41:19;23.10;99.90
12922;DHT22;6528;48.086;16.282;2022-10-16T01:44:04;23.10;99.90
12922;DHT22;6528;48.086;16.282;2022-10-16T01:46:34;23.10;1.00
12922;DHT22;6528;48.086;16.282;2022-10-16T01:49:03;23.10;99.90
12922;DHT22;6528;48.086;16.282;2022-10-16T01:51:30;23.10;99.90
12922;DHT22;6528;48.086;16.282;2022-10-16T01:54:00;23.10;42.50
12922;DHT22;6528;48.086;16.282;2022-10-16T01:56:28;23.10;99.90
12922;DHT22;6528;48.086;16.282;2022-10-16T01:59:05;23.10;99.90
12922;DHT22;6528;48.086;16.282;2022-10-16T02:01:35;23.10;33.50
12922;DHT22;6528;48.086;16.282;2022-10-16T02:04:15;23.10;99.90
12922;DHT22;6528;48.086;16.282;2022-10-16T02:06:43;23.10;99.90
12922;DHT22;6528;48.086;16.282;2022-10-16T02:09:10;23.10;49.40
12922;DHT22;6528;48.086;16.282;2022-10-16T02:11:37;23.10;1.00
12922;DHT22;6528;48.086;16.282;2022-10-16T02:14:05;23.10;99.90
12922;DHT22;6528;48.086;16.282;2022-10-16T02:16:55;23.10;99.90
12922;DHT22;6528;48.086;16.282;2022-10-16T02:19:21;23.10;1.00
12922;DHT22;6528;48.086;16.282;2022-10-16T02:21:54;23.10;1.00
12922;DHT22;6528;48.086;16.282;2022-10-16T02:32:36;23.10;1.00
12922;DHT22;6528;48.086;16.282;2022-10-16T02:35:04;23.10;29.30
12922;DHT22;6528;48.086;16.282;2022-10-16T02:37:32;23.10;99.90
12922;DHT22;6528;48.086;16.282;2022-10-16T02:40:00;23.10;1.00
12922;DHT22;6528;48.086;16.282;2022-10-16T02:42:29;23.10;1.00
12922;DHT22;6528;48.086;16.282;2022-10-16T02:44:59;23.10;1.00
12922;DHT22;6528;48.086;16.282;2022-10-16T02:47:26;23.10;99.90
12922;DHT22;6528;48.086;16.282;2022-10-16T02:49:53;23.20;9.30
12922;DHT22;6528;48.086;16.282;2022-10-16T02:52:20;23.20;1.00
12922;DHT22;6528;48.086;16.282;2022-10-16T02:54:46;23.10;1.00
12922;DHT22;6528;48.086;16.282;2022-10-16T02:57:13;23.20;1.00
12922;DHT22;6528;48.086;16.282;2022-10-16T02:59:40;23.20;99.90
12922;DHT22;6528;48.086;16.282;2022-10-16T03:02:07;23.20;1.00
12922;DHT22;6528;48.086;16.282;2022-10-16T03:04:33;23.20;1.00
12922;DHT22;6528;48.086;16.282;2022-10-16T03:07:00;23.20;99.90
12922;DHT22;6528;48.086;16.282;2022-10-16T03:09:27;23.20;1.00
12922;DHT22;6528;48.086;16.282;2022-10-16T03:11:53;23.20;1.00
12922;DHT22;6528;48.086;16.282;2022-10-16T03:14:20;23.20;1.00
12922;DHT22;6528;48.086;16.282;2022-10-16T03:16:47;23.20;52.70
12922;DHT22;6528;48.086;16.282;2022-10-16T03:19:16;23.20;1.00
12922;DHT22;6528;48.086;16.282;2022-10-16T03:21:43;23.20;99.90
12922;DHT22;6528;48.086;16.282;2022-10-16T03:24:10;23.20;99.90
12922;DHT22;6528;48.086;16.282;2022-10-16T03:26:36;23.20;99.90
12922;DHT22;6528;48.086;16.282;2022-10-16T03:29:03;23.20;99.90
12922;DHT22;6528;48.086;16.282;2022-10-16T03:31:30;23.30;99.90
12922;DHT22;6528;48.086;16.282;2022-10-16T03:33:57;23.20;99.90
12922;DHT22;6528;48.086;16.282;2022-10-16T03:36:24;23.20;99.90
12922;DHT22;6528;48.086;16.282;2022-10-16T03:38:50;23.30;1.00
12922;DHT22;6528;48.086;16.282;2022-10-16T03:41:17;23.30;1.00
12922;DHT22;6528;48.086;16.282;2022-10-16T03:43:44;23.30;21.60
12922;DHT22;6528;48.086;16.282;2022-10-16T03:46:11;23.30;1.00
12922;DHT22;6528;48.086;16.282;2022-10-16T03:48:38;23.30;1.00
12922;DHT22;6528;48.086;16.282;2022-10-16T03:51:06;23.30;1.00
12922;DHT22;6528;48.086;16.282;2022-10-16T03:53:33;23.30;99.90
12922;DHT22;6528;48.086;16.282;2022-10-16T03:55:59;23.30;99.90
12922;DHT22;6528;48.086;16.282;2022-10-16T03:58:26;23.30;1.00
12922;DHT22;6528;48.086;16.282;2022-10-16T04:00:54;23.30;16.00
12922;DHT22;6528;48.086;16.282;2022-10-16T04:03:21;23.30;1.00
12922;DHT22;6528;48.086;16.282;2022-10-16T04:05:47;23.30;1.00
12922;DHT22;6528;48.086;16.282;2022-10-16T04:08:14;23.30;97.20
12922;DHT22;6528;48.086;16.282;2022-10-16T04:10:44;23.30;14.10
12922;DHT22;6528;48.086;16.282;2022-10-16T04:13:11;23.30;1.00
12922;DHT22;6528;48.086;16.282;2022-10-16T04:15:38;23.30;99.90
12922;DHT22;6528;48.086;16.282;2022-10-16T04:18:06;23.30;99.90
12922;DHT22;6528;48.086;16.282;2022-10-16T04:20:33;23.30;99.90
12922;DHT22;6528;48.086;16.282;2022-10-16T04:23:00;23.30;99.90
12922;DHT22;6528;48.086;16.282;2022-10-16T04:25:27;23.30;1.00
12922;DHT22;6528;48.086;16.282;2022-10-16T04:27:54;23.30;1.00
12922;DHT22;6528;48.086;16.282;2022-10-16T04:30:21;23.30;99.90
12922;DHT22;6528;48.086;16.282;2022-10-16T04:32:49;23.30;99.90
12922;DHT22;6528;48.086;16.282;2022-10-16T04:35:17;23.30;1.00
12922;DHT22;6528;48.086;16.282;2022-10-16T04:37:44;23.30;1.00
12922;DHT22;6528;48.086;16.282;2022-10-16T04:40:12;23.30;99.90
12922;DHT22;6528;48.086;16.282;2022-10-16T04:42:39;23.30;1.00
12922;DHT22;6528;48.086;16.282;2022-10-16T04:45:06;23.30;99.90
12922;DHT22;6528;48.086;16.282;2022-10-16T04:47:40;23.30;99.90
12922;DHT22;6528;48.086;16.282;2022-10-16T04:50:07;23.30;99.90
12922;DHT22;6528;48.086;16.282;2022-10-16T04:52:34;23.30;1.00
12922;DHT22;6528;48.086;16.282;2022-10-16T04:55:06;23.30;1.00
12922;DHT22;6528;48.086;16.282;2022-10-16T04:57:33;23.30;1.00
12922;DHT22;6528;48.086;16.282;2022-10-16T05:00:00;23.30;1.00
12922;DHT22;6528;48.086;16.282;2022-10-16T05:02:27;23.30;1.00
12922;DHT22;6528;48.086;16.282;2022-10-16T05:04:54;23.30;1.00
12922;DHT22;6528;48.086;16.282;2022-10-16T05:07:21;23.30;1.00
12922;DHT22;6528;48.086;16.282;2022-10-16T05:09:47;23.30;1.00
12922;DHT22;6528;48.086;16.282;2022-10-16T05:12:14;23.30;1.00
12922;DHT22;6528;48.086;16.282;2022-10-16T05:14:41;23.30;1.00
12922;DHT22;6528;48.086;16.282;2022-10-16T05:17:08;23.30;1.00
12922;DHT22;6528;48.086;16.282;2022-10-16T05:19:34;23.30;1.00
12922;DHT22;6528;48.086;16.282;2022-10-16T05:22:01;23.30;1.00
12922;DHT22;6528;48.086;16.282;2022-10-16T05:24:28;23.30;1.00
12922;DHT22;6528;48.086;16.282;2022-10-16T05:26:55;23.30;1.00
12922;DHT22;6528;48.086;16.282;2022-10-16T05:29:22;23.30;1.00
12922;DHT22;6528;48.086;16.282;2022-10-16T05:31:52;23.30;1.00
12922;DHT22;6528;48.086;16.282;2022-10-16T05:34:20;23.30;1.00
12922;DHT22;6528;48.086;16.282;2022-10-16T05:36:47;23.30;1.00
12922;DHT22;6528;48.086;16.282;2022-10-16T05:39:15;23.40;1.00
12922;DHT22;6528;48.086;16.282;2022-10-16T05:41:42;23.30;1.00
12922;DHT22;6528;48.086;16.282;2022-10-16T05:44:09;23.30;1.00
12922;DHT22;6528;48.086;16.282;2022-10-16T05:46:36;23.30;1.00
12922;DHT22;6528;48.086;16.282;2022-10-16T05:49:03;23.30;1.00
12922;DHT22;6528;48.086;16.282;2022-10-16T05:51:30;23.30;1.00
12922;DHT22;6528;48.086;16.282;2022-10-16T05:53:57;23.30;1.00
12922;DHT22;6528;48.086;16.282;2022-10-16T05:56:24;23.30;1.00
12922;DHT22;6528;48.086;16.282;2022-10-16T05:58:50;23.30;1.00
12922;DHT22;6528;48.086;16.282;2022-10-16T06:01:18;23.30;1.00
12922;DHT22;6528;48.086;16.282;2022-10-16T06:03:46;23.30;1.00
12922;DHT22;6528;48.086;16.282;2022-10-16T06:06:18;23.30;1.00
12922;DHT22;6528;48.086;16.282;2022-10-16T06:08:46;23.30;1.00
12922;DHT22;6528;48.086;16.282;2022-10-16T06:11:15;23.30;1.00
12922;DHT22;6528;48.086;16.282;2022-10-16T06:13:42;23.30;1.00
12922;DHT22;6528;48.086;16.282;2022-10-16T06:16:10;23.30;1.00
12922;DHT22;6528;48.086;16.282;2022-10-16T06:18:37;23.30;99.90
12922;DHT22;6528;48.086;16.282;2022-10-16T06:21:16;23.30;99.90
12922;DHT22;6528;48.086;16.282;2022-10-16T06:23:43;23.30;99.90
12922;DHT22;6528;48.086;16.282;2022-10-16T06:26:14;23.30;99.90
12922;DHT22;6528;48.086;16.282;2022-10-16T06:28:41;23.30;94.80
12922;DHT22;6528;48.086;16.282;2022-10-16T06:31:09;23.30;1.00
12922;DHT22;6528;48.086;16.282;2022-10-16T06:33:37;23.30;10.80
12922;DHT22;6528;48.086;16.282;2022-10-16T06:36:10;23.30;99.90
12922;DHT22;6528;48.086;16.282;2022-10-16T06:38:37;23.30;82.80
12922;DHT22;6528;48.086;16.282;2022-10-16T06:41:05;23.30;99.90
12922;DHT22;6528;48.086;16.282;2022-10-16T06:43:33;23.30;99.90
12922;DHT22;6528;48.086;16.282;2022-10-16T06:46:02;23.30;99.90
12922;DHT22;6528;48.086;16.282;2022-10-16T06:48:30;23.30;99.90
12922;DHT22;6528;48.086;16.282;2022-10-16T06:51:03;23.30;1.00
12922;DHT22;6528;48.086;16.282;2022-10-16T06:53:38;23.30;99.90
12922;DHT22;6528;48.086;16.282;2022-10-16T06:56:27;23.30;1.00
12922;DHT22;6528;48.086;16.282;2022-10-16T06:58:54;23.30;99.90
12922;DHT22;6528;48.086;16.282;2022-10-16T07:01:23;23.30;1.00
12922;DHT22;6528;48.086;16.282;2022-10-16T07:03:50;23.30;1.00
12922;DHT22;6528;48.086;16.282;2022-10-16T07:06:19;23.20;1.00
12922;DHT22;6528;48.086;16.282;2022-10-16T07:08:46;23.20;99.90
12922;DHT22;6528;48.086;16.282;2022-10-16T07:11:16;23.20;99.90
12922;DHT22;6528;48.086;16.282;2022-10-16T07:13:44;23.20;1.00
12922;DHT22;6528;48.086;16.282;2022-10-16T07:16:26;23.20;37.50
12922;DHT22;6528;48.086;16.282;2022-10-16T07:18:58;23.20;1.00
12922;DHT22;6528;48.086;16.282;2022-10-16T07:21:29;23.20;99.90
12922;DHT22;6528;48.086;16.282;2022-10-16T07:23:58;23.20;1.00
12922;DHT22;6528;48.086;16.282;2022-10-16T07:26:27;23.20;64.00
12922;DHT22;6528;48.086;16.282;2022-10-16T07:28:54;23.20;99.90
12922;DHT22;6528;48.086;16.282;2022-10-16T07:31:21;23.20;1.00
12922;DHT22;6528;48.086;16.282;2022-10-16T07:33:49;23.20;1.00
12922;DHT22;6528;48.086;16.282;2022-10-16T07:36:17;23.20;1.00
12922;DHT22;6528;48.086;16.282;2022-10-16T07:38:45;23.10;99.90
12922;DHT22;6528;48.086;16.282;2022-10-16T07:41:14;22.80;99.90
12922;DHT22;6528;48.086;16.282;2022-10-16T07:43:48;22.40;1.00
12922;DHT22;6528;48.086;16.282;2022-10-16T07:46:16;22.20;99.90
12922;DHT22;6528;48.086;16.282;2022-10-16T07:48:44;21.90;1.00
12922;DHT22;6528;48.086;16.282;2022-10-16T07:51:19;21.70;99.90
12922;DHT22;6528;48.086;16.282;2022-10-16T07:53:47;21.40;1.00
12922;DHT22;6528;48.086;16.282;2022-10-16T07:56:15;21.20;99.90
12922;DHT22;6528;48.086;16.282;2022-10-16T07:58:42;21.10;1.00
12922;DHT22;6528;48.086;16.282;2022-10-16T08:01:11;20.90;99.90
12922;DHT22;6528;48.086;16.282;2022-10-16T08:03:42;20.80;11.40
12922;DHT22;6528;48.086;16.282;2022-10-16T08:06:09;20.70;91.20
12922;DHT22;6528;48.086;16.282;2022-10-16T08:08:36;20.60;90.60
12922;DHT22;6528;48.086;16.282;2022-10-16T08:11:02;20.50;4.40
12922;DHT22;6528;48.086;16.282;2022-10-16T08:13:32;20.40;1.00
12922;DHT22;6528;48.086;16.282;2022-10-16T08:15:59;20.40;99.90
12922;DHT22;6528;48.086;16.282;2022-10-16T08:18:26;20.30;99.90
12922;DHT22;6528;48.086;16.282;2022-10-16T08:20:59;20.30;99.90
12922;DHT22;6528;48.086;16.282;2022-10-16T08:23:27;20.30;77.20
12922;DHT22;6528;48.086;16.282;2022-10-16T08:25:55;20.20;90.60
12922;DHT22;6528;48.086;16.282;2022-10-16T08:28:22;20.20;92.30
12922;DHT22;6528;48.086;16.282;2022-10-16T08:30:49;20.10;92.40
12922;DHT22;6528;48.086;16.282;2022-10-16T08:33:16;20.10;92.10
12922;DHT22;6528;48.086;16.282;2022-10-16T08:35:50;20.10;91.10
12922;DHT22;6528;48.086;16.282;2022-10-16T08:38:17;20.00;99.90
12922;DHT22;6528;48.086;16.282;2022-10-16T08:40:44;20.00;1.00
12922;DHT22;6528;48.086;16.282;2022-10-16T08:48:57;20.00;92.50
12922;DHT22;6528;48.086;16.282;2022-10-16T08:51:31;19.90;92.50
12922;DHT22;6528;48.086;16.282;2022-10-16T08:54:03;19.90;92.80
12922;DHT22;6528;48.086;16.282;2022-10-16T08:56:30;19.90;93.00
12922;DHT22;6528;48.086;16.282;2022-10-16T08:58:58;19.90;93.10
12922;DHT22;6528;48.086;16.282;2022-10-16T09:01:41;19.90;93.20
12922;DHT22;6528;48.086;16.282;2022-10-16T09:12:56;19.80;92.80
12922;DHT22;6528;48.086;16.282;2022-10-16T09:23:21;19.70;93.40
12922;DHT22;6528;48.086;16.282;2022-10-16T09:25:50;19.70;93.40
12922;DHT22;6528;48.086;16.282;2022-10-16T09:28:18;19.70;93.40
12922;DHT22;6528;48.086;16.282;2022-10-16T09:30:45;19.70;93.50
12922;DHT22;6528;48.086;16.282;2022-10-16T09:33:13;19.70;93.70
12922;DHT22;6528;48.086;16.282;2022-10-16T09:35:46;19.70;93.90
12922;DHT22;6528;48.086;16.282;2022-10-16T09:38:30;19.70;94.10
12922;DHT22;6528;48.086;16.282;2022-10-16T09:40:59;19.70;94.10
12922;DHT22;6528;48.086;16.282;2022-10-16T09:43:36;19.70;94.30
12922;DHT22;6528;48.086;16.282;2022-10-16T09:46:05;19.80;94.40
12922;DHT22;6528;48.086;16.282;2022-10-16T09:48:48;20.00;94.30
12922;DHT22;6528;48.086;16.282;2022-10-16T09:53:53;20.40;94.00
12922;DHT22;6528;48.086;16.282;2022-10-16T09:56:29;20.60;93.90
12922;DHT22;6528;48.086;16.282;2022-10-16T09:58:59;20.80;93.70
12922;DHT22;6528;48.086;16.282;2022-10-16T10:01:31;21.00;93.50
12922;DHT22;6528;48.086;16.282;2022-10-16T10:04:01;21.10;93.50
12922;DHT22;6528;48.086;16.282;2022-10-16T10:06:53;21.30;93.30
12922;DHT22;6528;48.086;16.282;2022-10-16T10:09:29;21.40;93.20
12922;DHT22;6528;48.086;16.282;2022-10-16T10:11:59;21.60;93.10
12922;DHT22;6528;48.086;16.282;2022-10-16T10:14:38;21.60;92.90
12922;DHT22;6528;48.086;16.282;2022-10-16T10:22:24;21.90;92.40
12922;DHT22;6528;48.086;16.282;2022-10-16T10:36:20;22.20;58.70
12922;DHT22;6528;48.086;16.282;2022-10-16T10:39:01;22.30;1.00
12922;DHT22;6528;48.086;16.282;2022-10-16T10:53:23;22.50;61.20
12922;DHT22;6528;48.086;16.282;2022-10-16T11:04:15;22.60;99.90
12922;DHT22;6528;48.086;16.282;2022-10-16T11:07:04;22.70;1.00
12922;DHT22;6528;48.086;16.282;2022-10-16T11:09:38;22.70;99.90
12922;DHT22;6528;48.086;16.282;2022-10-16T11:12:20;22.80;99.90
12922;DHT22;6528;48.086;16.282;2022-10-16T11:15:05;22.80;99.90
12922;DHT22;6528;48.086;16.282;2022-10-16T11:17:43;22.80;1.00
12922;DHT22;6528;48.086;16.282;2022-10-16T11:20:21;22.80;1.00
12922;DHT22;6528;48.086;16.282;2022-10-16T11:22:56;22.90;1.00
12922;DHT22;6528;48.086;16.282;2022-10-16T11:30:27;22.90;1.00
12922;DHT22;6528;48.086;16.282;2022-10-16T11:35:54;23.00;1.00
12922;DHT22;6528;48.086;16.282;2022-10-16T11:43:41;22.50;1.00
12922;DHT22;6528;48.086;16.282;2022-10-16T11:46:21;22.40;1.00
12922;DHT22;6528;48.086;16.282;2022-10-16T11:49:15;22.30;17.20
12922;DHT22;6528;48.086;16.282;2022-10-16T11:51:48;22.20;99.90
12922;DHT22;6528;48.086;16.282;2022-10-16T11:54:38;22.10;1.00
12922;DHT22;6528;48.086;16.282;2022-10-16T11:57:13;22.00;1.00
12922;DHT22;6528;48.086;16.282;2022-10-16T11:59:58;21.90;1.00
12922;DHT22;6528;48.086;16.282;2022-10-16T12:08:19;21.80;1.00
12922;DHT22;6528;48.086;16.282;2022-10-16T12:10:47;21.80;1.00
12922;DHT22;6528;48.086;16.282;2022-10-16T12:13:29;21.80;78.70
12922;DHT22;6528;48.086;16.282;2022-10-16T12:18:43;21.70;1.00
12922;DHT22;6528;48.086;16.282;2022-10-16T12:21:11;21.70;99.90
12922;DHT22;6528;48.086;16.282;2022-10-16T12:23:51;21.70;99.90
12922;DHT22;6528;48.086;16.282;2022-10-16T12:26:27;21.60;99.90
12922;DHT22;6528;48.086;16.282;2022-10-16T12:28:55;21.60;99.90
12922;DHT22;6528;48.086;16.282;2022-10-16T12:31:22;21.60;99.90
12922;DHT22;6528;48.086;16.282;2022-10-16T12:33:59;21.60;1.00
12922;DHT22;6528;48.086;16.282;2022-10-16T12:36:32;21.60;1.00
12922;DHT22;6528;48.086;16.282;2022-10-16T12:39:01;21.60;99.90
12922;DHT22;6528;48.086;16.282;2022-10-16T12:41:34;21.60;99.90
12922;DHT22;6528;48.086;16.282;2022-10-16T12:44:02;21.60;99.90
12922;DHT22;6528;48.086;16.282;2022-10-16T12:51:55;21.60;99.90
12922;DHT22;6528;48.086;16.282;2022-10-16T12:54:28;21.70;99.90
12922;DHT22;6528;48.086;16.282;2022-10-16T13:28:06;21.70;99.90
12922;DHT22;6528;48.086;16.282;2022-10-16T13:30:40;21.70;99.90
12922;DHT22;6528;48.086;16.282;2022-10-16T13:33:37;21.80;99.90
12922;DHT22;6528;48.086;16.282;2022-10-16T13:36:05;21.80;99.90
12922;DHT22;6528;48.086;16.282;2022-10-16T13:38:35;21.80;83.90
12922;DHT22;6528;48.086;16.282;2022-10-16T13:43:36;21.80;99.90
12922;DHT22;6528;48.086;16.282;2022-10-16T13:46:13;21.80;99.90
12922;DHT22;6528;48.086;16.282;2022-10-16T13:48:41;21.80;99.90
12922;DHT22;6528;48.086;16.282;2022-10-16T13:51:18;21.80;56.80
12922;DHT22;6528;48.086;16.282;2022-10-16T13:53:45;21.80;99.90
12922;DHT22;6528;48.086;16.282;2022-10-16T13:56:15;21.80;72.10
12922;DHT22;6528;48.086;16.282;2022-10-16T13:58:42;21.90;1.00
12922;DHT22;6528;48.086;16.282;2022-10-16T14:01:26;21.90;1.00
12922;DHT22;6528;48.086;16.282;2022-10-16T14:04:04;21.80;1.00
12922;DHT22;6528;48.086;16.282;2022-10-16T14:06:32;21.80;1.00
12922;DHT22;6528;48.086;16.282;2022-10-16T14:09:29;21.70;94.80
12922;DHT22;6528;48.086;16.282;2022-10-16T14:12:08;21.70;99.90
12922;DHT22;6528;48.086;16.282;2022-10-16T14:14:44;21.70;1.00
12922;DHT22;6528;48.086;16.282;2022-10-16T14:17:29;21.70;51.80
12922;DHT22;6528;48.086;16.282;2022-10-16T14:19:59;21.70;1.00
12922;DHT22;6528;48.086;16.282;2022-10-16T14:22:39;21.60;99.90
12922;DHT22;6528;48.086;16.282;2022-10-16T14:30:30;21.60;85.00
12922;DHT22;6528;48.086;16.282;2022-10-16T14:35:34;21.50;1.00
12922;DHT22;6528;48.086;16.282;2022-10-16T14:38:02;21.50;99.90
12922;DHT22;6528;48.086;16.282;2022-10-16T14:40:32;21.50;99.90
12922;DHT22;6528;48.086;16.282;2022-10-16T14:43:01;21.50;99.90
12922;DHT22;6528;48.086;16.282;2022-10-16T14:45:30;21.50;99.90
12922;DHT22;6528;48.086;16.282;2022-10-16T14:47:59;21.50;1.00
12922;DHT22;6528;48.086;16.282;2022-10-16T14:50:26;21.50;1.00
12922;DHT22;6528;48.086;16.282;2022-10-16T14:52:54;21.50;1.00
12922;DHT22;6528;48.086;16.282;2022-10-16T14:55:21;21.50;99.90
12922;DHT22;6528;48.086;16.282;2022-10-16T14:57:53;21.50;1.00
12922;DHT22;6528;48.086;16.282;2022-10-16T15:00:26;21.50;1.00
12922;DHT22;6528;48.086;16.282;2022-10-16T15:02:52;21.50;99.90
12922;DHT22;6528;48.086;16.282;2022-10-16T15:05:24;21.40;1.00
12922;DHT22;6528;48.086;16.282;2022-10-16T15:07:53;21.40;1.00
12922;DHT22;6528;48.086;16.282;2022-10-16T15:10:23;21.30;17.30
12922;DHT22;6528;48.086;16.282;2022-10-16T15:12:51;21.30;1.00
12922;DHT22;6528;48.086;16.282;2022-10-16T15:17:51;21.30;99.90
12922;DHT22;6528;48.086;16.282;2022-10-16T15:20:20;21.30;99.90
12922;DHT22;6528;48.086;16.282;2022-10-16T15:22:47;21.20;1.00
12922;DHT22;6528;48.086;16.282;2022-10-16T15:28:01;21.20;99.90
12922;DHT22;6528;48.086;16.282;2022-10-16T15:30:28;21.20;39.60
12922;DHT22;6528;48.086;16.282;2022-10-16T15:32:55;21.20;1.00
12922;DHT22;6528;48.086;16.282;2022-10-16T15:35:22;21.20;1.00
12922;DHT22;6528;48.086;16.282;2022-10-16T15:37:49;21.20;1.00
12922;DHT22;6528;48.086;16.282;2022-10-16T15:40:17;21.10;99.90
12922;DHT22;6528;48.086;16.282;2022-10-16T15:42:45;21.10;1.00
12922;DHT22;6528;48.086;16.282;2022-10-16T15:45:12;21.10;1.00
12922;DHT22;6528;48.086;16.282;2022-10-16T15:47:41;21.10;47.50
12922;DHT22;6528;48.086;16.282;2022-10-16T15:50:12;21.10;1.00
12922;DHT22;6528;48.086;16.282;2022-10-16T15:52:40;21.10;17.80
12922;DHT22;6528;48.086;16.282;2022-10-16T15:55:08;21.10;10.90
12922;DHT22;6528;48.086;16.282;2022-10-16T15:57:36;21.10;10.50
12922;DHT22;6528;48.086;16.282;2022-10-16T16:00:10;21.10;65.20
12922;DHT22;6528;48.086;16.282;2022-10-16T16:02:37;21.10;1.00
12922;DHT22;6528;48.086;16.282;2022-10-16T16:05:04;21.10;99.90
12922;DHT22;6528;48.086;16.282;2022-10-16T16:07:34;21.10;99.90
12922;DHT22;6528;48.086;16.282;2022-10-16T16:10:02;21.10;78.90
12922;DHT22;6528;48.086;16.282;2022-10-16T16:12:29;21.10;99.90
12922;DHT22;6528;48.086;16.282;2022-10-16T16:14:55;21.10;99.90
12922;DHT22;6528;48.086;16.282;2022-10-16T16:17:27;21.10;1.00
12922;DHT22;6528;48.086;16.282;2022-10-16T16:19:54;21.10;99.90
12922;DHT22;6528;48.086;16.282;2022-10-16T16:22:20;21.10;13.40
12922;DHT22;6528;48.086;16.282;2022-10-16T16:24:47;21.00;1.00
12922;DHT22;6528;48.086;16.282;2022-10-16T16:27:14;21.00;99.90
12922;DHT22;6528;48.086;16.282;2022-10-16T16:29:41;21.00;99.90
12922;DHT22;6528;48.086;16.282;2022-10-16T16:32:08;21.00;99.90
12922;DHT22;6528;48.086;16.282;2022-10-16T16:34:35;20.90;99.90
12922;DHT22;6528;48.086;16.282;2022-10-16T16:37:01;21.00;99.90
12922;DHT22;6528;48.086;16.282;2022-10-16T16:39:28;20.90;99.90
12922;DHT22;6528;48.086;16.282;2022-10-16T16:41:56;21.00;99.90
12922;DHT22;6528;48.086;16.282;2022-10-16T16:44:25;21.00;99.90
12922;DHT22;6528;48.086;16.282;2022-10-16T16:46:51;20.90;1.00
12922;DHT22;6528;48.086;16.282;2022-10-16T16:49:19;20.90;99.90
12922;DHT22;6528;48.086;16.282;2022-10-16T16:51:45;20.90;99.90
12922;DHT22;6528;48.086;16.282;2022-10-16T16:54:12;20.80;1.00
12922;DHT22;6528;48.086;16.282;2022-10-16T16:56:41;20.90;1.00
12922;DHT22;6528;48.086;16.282;2022-10-16T16:59:17;20.80;1.00
12922;DHT22;6528;48.086;16.282;2022-10-16T17:01:46;20.80;99.90
12922;DHT22;6528;48.086;16.282;2022-10-16T17:04:16;20.80;1.00
12922;DHT22;6528;48.086;16.282;2022-10-16T17:06:43;20.80;1.00
12922;DHT22;6528;48.086;16.282;2022-10-16T17:09:10;20.80;1.00
12922;DHT22;6528;48.086;16.282;2022-10-16T17:11:39;20.80;1.00
12922;DHT22;6528;48.086;16.282;2022-10-16T17:14:11;20.80;99.90
12922;DHT22;6528;48.086;16.282;2022-10-16T17:16:39;20.70;1.00
12922;DHT22;6528;48.086;16.282;2022-10-16T17:19:07;20.70;53.10
12922;DHT22;6528;48.086;16.282;2022-10-16T17:21:35;20.70;1.00
12922;DHT22;6528;48.086;16.282;2022-10-16T17:24:02;20.70;1.00
12922;DHT22;6528;48.086;16.282;2022-10-16T17:26:30;20.70;1.00
12922;DHT22;6528;48.086;16.282;2022-10-16T17:29:00;20.90;1.00
12922;DHT22;6528;48.086;16.282;2022-10-16T17:31:33;21.00;1.00
12922;DHT22;6528;48.086;16.282;2022-10-16T17:34:01;21.00;1.00
12922;DHT22;6528;48.086;16.282;2022-10-16T17:36:30;21.20;25.90
12922;DHT22;6528;48.086;16.282;2022-10-16T17:38:59;21.20;1.00
12922;DHT22;6528;48.086;16.282;2022-10-16T17:41:30;21.40;1.00
12922;DHT22;6528;48.086;16.282;2022-10-16T17:43:56;21.40;1.00
12922;DHT22;6528;48.086;16.282;2022-10-16T17:46:24;21.50;1.00
12922;DHT22;6528;48.086;16.282;2022-10-16T17:48:52;21.60;99.90
12922;DHT22;6528;48.086;16.282;2022-10-16T17:51:25;21.70;1.00
12922;DHT22;6528;48.086;16.282;2022-10-16T17:53:57;21.70;99.90
12922;DHT22;6528;48.086;16.282;2022-10-16T17:56:25;21.80;1.00
12922;DHT22;6528;48.086;16.282;2022-10-16T17:58:54;21.90;96.00
12922;DHT22;6528;48.086;16.282;2022-10-16T18:01:23;21.90;96.30
12922;DHT22;6528;48.086;16.282;2022-10-16T18:03:56;21.90;96.30
12922;DHT22;6528;48.086;16.282;2022-10-16T18:06:23;22.00;96.30
12922;DHT22;6528;48.086;16.282;2022-10-16T18:08:51;22.00;96.10
12922;DHT22;6528;48.086;16.282;2022-10-16T18:11:18;22.00;96.10
12922;DHT22;6528;48.086;16.282;2022-10-16T18:13:45;22.10;96.00
12922;DHT22;6528;48.086;16.282;2022-10-16T18:16:13;22.10;95.90
12922;DHT22;6528;48.086;16.282;2022-10-16T18:18:41;22.10;95.80
12922;DHT22;6528;48.086;16.282;2022-10-16T18:21:11;22.20;95.80
12922;DHT22;6528;48.086;16.282;2022-10-16T18:23:38;22.20;95.70